Galway, Ireland
Current Conditions -  °F | °C
As of 7:00 AM on Friday 31 Oct 2014 (Local Time) from EINN Reporting Station
Broken Clouds Broken Clouds  
Wind Chill: 61°   Ceiling: 7000
Heat Index: 61°   Visibility: 6mi
Dew Point: 59°   Wind: 20mph
Humidity: 94%   Direction: 140°SE
Pressure: 29.59"   Gusts: NA
Location:  53.28°N, 9.06°W
Report Text: EINN 310700Z 14017KT 9999 FEW015 SCT042 BKN070 16/15 Q1002 NOSIG
Loading
Personal Weather Stations






























Interactive Weather Map
Tropical Storm Tracking
New forecast layout! Learn more

10-Day Weather Forecast

Advertisements
Track Severe Weather on mobile